Lewistown, Montana
Current Conditions -  °F | °C
As of 2:54 PM on Monday 22 Dec 2014 (Local Time) from KLWT Reporting Station
Overcast Overcast  
Wind Chill: 28°   Ceiling: 7500
Heat Index: 36°   Visibility: 10mi
Dew Point: 22°   Wind: 13mph
Humidity: 57%   Direction: 320°NW
Pressure: 29.9"   Gusts: 21mph
Location:  47.07°N, 109.42°W
Report Text: KLWT 222154Z AUTO 32011G18KT 10SM BKN075 OVC090 02/M06 A2990 RMK AO2 PK WND 32026/2102 SLP144 T00221056
Loading
Personal Weather Stations






























Interactive Weather Map New forecast layout! Learn more

10-Day Weather Forecast

Advertisements
Track Severe Weather on mobile